Terminal Aerodrome Forecast
Issued by NWS North Platte, NE

Home | Current Version | Previous Version | Text Only | Print | Product List | Glossary On
Versions: 1 2 3 4 5 6 7 8 9 10 11 12 13 14 15
994
FTUS43 KLBF 111839 AAB
TAFVTN
TAF AMD
KVTN 111839Z 1119/1218 33026G38KT P6SM OVC025
     FM112100 33020G30KT P6SM OVC025
     FM120500 31008KT P6SM SCT050
     FM121000 28007KT P6SM SCT200=

USA.gov is the U.S. government's official web portal to all federal, state and local government web resources and services.